Time;durP1;ratioP1;P1;durP2;ratioP2;P2;SDS_P1;SDS_P2;PMS_P1;PMS_P2;Temp;Humidity;BMP_temperature;BMP_pressure;BME280_temperature;BME280_humidity;BME280_pressure;Samples;Min_cycle;Max_cycle;Signal;HPM_P1;HPM_P2
2020/12/03 00:01:24;;;;;;;125.58;73.33;;;;;;;-0.19;81.07;100200.28;2984800;77;21137;-64
2020/12/03 00:05:29;;;;;;;126.27;73.22;;;;;;;-0.22;80.29;100200.38;2953825;80;21133;-64
2020/12/03 00:09:32;;;;;;;118.42;69.85;;;;;;;-0.25;80.12;100199.20;3000037;79;21137;-65
2020/12/03 00:13:37;;;;;;;126.35;70.35;;;;;;;-0.28;80.05;100195.86;3006924;79;21133;-65
2020/12/03 00:17:43;;;;;;;122.95;67.67;;;;;;;-0.37;80.19;100189.22;3007021;78;21563;-64
2020/12/03 00:21:54;;;;;;;130.00;68.52;;;;;;;-0.41;80.20;100190.22;2970828;78;21168;-65
2020/12/03 00:25:58;;;;;;;129.15;73.75;;;;;;;-0.41;80.20;100198.06;2953636;80;21460;-64
2020/12/03 00:30:05;;;;;;;121.97;68.07;;;;;;;-0.43;80.31;100185.08;2953737;80;21172;-64
2020/12/03 00:34:09;;;;;;;;;;;;;;;-0.45;80.70;100194.27;2956424;80;21137;-64
2020/12/03 00:38:13;;;;;;;130.15;65.70;;;;;;;-0.45;80.69;100190.81;2953559;80;20187;-65
2020/12/03 00:42:16;;;;;;;134.82;71.82;;;;;;;-0.42;80.67;100193.31;2953644;80;21555;-65
2020/12/03 00:46:19;;;;;;;121.17;62.48;;;;;;;-0.38;80.67;100190.14;2954076;80;21137;-65
2020/12/03 00:50:23;;;;;;;129.12;67.60;;;;;;;-0.33;80.86;100182.97;2954468;80;21580;-63
2020/12/03 00:54:28;;;;;;;144.02;76.37;;;;;;;-0.23;80.92;100177.76;2965400;78;21134;-64
2020/12/03 00:58:31;;;;;;;151.72;80.12;;;;;;;-0.16;80.97;100177.94;2838866;83;21633;-64
2020/12/03 01:02:34;;;;;;;146.98;81.45;;;;;;;-0.09;80.88;100172.02;2853339;83;21118;-64
2020/12/03 01:06:37;;;;;;;143.57;79.95;;;;;;;-0.07;80.66;100147.09;2853076;83;21177;-64
2020/12/03 01:10:41;;;;;;;142.30;82.22;;;;;;;-0.12;80.30;100152.97;2853508;83;21156;-64
2020/12/03 01:14:44;;;;;;;139.05;73.47;;;;;;;-0.15;80.20;100137.80;2853154;83;21604;-65
2020/12/03 01:18:48;;;;;;;153.60;80.10;;;;;;;-0.12;80.10;100138.59;2852960;83;21474;-65
2020/12/03 01:22:53;;;;;;;142.62;80.45;;;;;;;-0.10;80.00;100122.37;2853262;83;21153;-65
2020/12/03 01:26:56;;;;;;;137.32;77.72;;;;;;;-0.08;79.95;100105.73;2852894;83;21157;-64
2020/12/03 01:30:59;;;;;;;149.87;79.37;;;;;;;-0.05;80.01;100105.59;2867314;81;21136;-64
2020/12/03 01:35:03;;;;;;;162.07;81.17;;;;;;;-0.07;80.07;100113.10;2878210;82;21093;-65
2020/12/03 01:39:07;;;;;;;129.80;69.95;;;;;;;-0.05;80.19;100115.19;2878137;81;21611;-64
2020/12/03 01:43:10;;;;;;;118.97;65.37;;;;;;;-0.04;80.12;100104.69;2878155;82;21172;-65
2020/12/03 01:47:34;;;;;;;146.93;76.45;;;;;;;-0.02;80.04;100093.70;2883367;82;21113;-65
2020/12/03 01:51:42;;;;;;;122.78;63.33;;;;;;;0.00;80.00;100085.80;2889194;82;21615;-65
2020/12/03 01:55:46;;;;;;;133.82;65.55;;;;;;;-0.09;79.46;100078.32;2889182;81;21177;-64
2020/12/03 01:59:54;;;;;;;137.45;72.03;;;;;;;-0.16;79.58;100075.97;2888995;82;21141;-65
2020/12/03 02:15:10;;;;;;;141.40;74.62;;;;;;;-0.13;80.45;100038.84;3117178;76;22137;-65
2020/12/03 02:19:23;;;;;;;152.50;82.10;;;;;;;-0.15;80.16;100026.68;3064923;77;21690;-64
2020/12/03 02:23:27;;;;;;;142.10;70.97;;;;;;;-0.16;79.89;100017.58;3060615;77;21132;-64
2020/12/03 02:27:30;;;;;;;134.40;73.07;;;;;;;-0.17;79.81;100014.13;3111598;76;21142;-64
2020/12/03 02:31:34;;;;;;;114.82;62.78;;;;;;;-0.18;79.66;100007.64;3089610;76;21127;-64
2020/12/03 02:35:37;;;;;;;118.90;64.12;;;;;;;-0.20;79.92;99998.55;3054134;78;21079;-64
2020/12/03 02:39:42;;;;;;;119.20;64.80;;;;;;;-0.30;80.20;100006.39;3054074;78;21122;-64
2020/12/03 02:43:45;;;;;;;115.55;58.35;;;;;;;-0.34;80.67;100010.05;3053860;78;21150;-64
2020/12/03 02:47:48;;;;;;;137.57;72.20;;;;;;;-0.37;81.04;100008.88;3054231;78;21149;-64
2020/12/03 02:51:51;;;;;;;139.43;75.37;;;;;;;-0.36;81.24;100019.72;3026680;77;22208;-63
2020/12/03 02:55:54;;;;;;;111.95;57.13;;;;;;;-0.27;81.26;100032.88;3017457;78;21573;-63
2020/12/03 02:59:57;;;;;;;127.58;64.35;;;;;;;-0.17;81.01;100035.48;3038145;78;21131;-64
2020/12/03 03:04:04;;;;;;;136.80;78.47;;;;;;;-0.16;80.84;100030.66;3038243;78;21100;-64
2020/12/03 03:08:06;;;;;;;142.80;77.92;;;;;;;-0.08;80.70;100021.19;3013063;78;21156;-64
2020/12/03 03:12:10;;;;;;;143.70;78.25;;;;;;;-0.01;80.41;100006.48;3049344;78;21151;-64
2020/12/03 03:16:13;;;;;;;143.37;80.57;;;;;;;0.04;80.29;100001.06;3032180;78;21116;-64
2020/12/03 03:20:16;;;;;;;143.93;80.40;;;;;;;0.07;80.05;99990.47;3032032;77;21111;-64
2020/12/03 03:24:19;;;;;;;141.90;75.87;;;;;;;0.06;79.89;99978.75;3031804;78;21092;-65
2020/12/03 03:28:23;;;;;;;121.60;69.10;;;;;;;0.03;79.61;99961.44;3031315;78;21585;-63
2020/12/03 03:32:27;;;;;;;132.00;71.00;;;;;;;-0.19;79.58;99928.81;3030980;78;21161;-64
2020/12/03 03:36:31;;;;;;;129.95;70.47;;;;;;;-0.16;79.79;99958.31;3031196;78;21664;-64
2020/12/03 03:40:34;;;;;;;133.37;75.92;;;;;;;-0.13;80.17;99954.69;3030964;77;21582;-64
2020/12/03 03:44:38;;;;;;;130.47;73.40;;;;;;;-0.11;80.21;99957.25;3031719;77;21135;-64
2020/12/03 03:48:40;;;;;;;166.85;80.42;;;;;;;-0.11;80.06;99946.80;3031161;78;21150;-65
2020/12/03 03:52:47;;;;;;;134.95;69.07;;;;;;;-0.10;80.29;99945.88;3030975;78;21137;-64
2020/12/03 03:56:49;;;;;;;124.10;59.15;;;;;;;-0.09;80.20;99942.34;3031084;78;21104;-64
2020/12/03 04:00:54;;;;;;;142.77;69.03;;;;;;;-0.03;80.24;99927.69;3031739;77;21099;-65
2020/12/03 04:04:58;;;;;;;130.27;72.10;;;;;;;-0.02;80.12;99920.23;3032546;78;21136;-65
2020/12/03 04:09:02;;;;;;;148.78;79.75;;;;;;;0.03;80.19;99914.81;3033002;78;21095;-67
2020/12/03 04:13:06;;;;;;;151.15;80.25;;;;;;;0.11;80.23;99915.34;3033649;78;21529;-67
2020/12/03 04:17:09;;;;;;;141.90;72.97;;;;;;;0.19;80.14;99914.97;3033926;78;21143;-66
2020/12/03 04:21:16;;;;;;;146.00;83.70;;;;;;;0.26;79.95;99915.10;3032591;78;21140;-65
2020/12/03 04:25:19;;;;;;;142.32;78.78;;;;;;;0.28;79.57;99904.94;3031190;78;21107;-64
2020/12/03 04:29:22;;;;;;;151.07;79.30;;;;;;;0.30;79.57;99902.27;3031139;78;21072;-68
2020/12/03 04:33:26;;;;;;;145.02;84.65;;;;;;;0.26;79.80;99896.31;3031204;78;21111;-67
2020/12/03 04:37:29;;;;;;;158.42;84.60;;;;;;;0.25;79.90;99895.92;3031058;78;21132;-68
2020/12/03 04:41:33;;;;;;;150.07;78.62;;;;;;;0.35;80.04;99884.58;3031370;78;21132;-68
2020/12/03 04:45:44;;;;;;;144.10;82.53;;;;;;;0.35;79.65;99874.11;3031115;78;21490;-68
2020/12/03 04:49:55;;;;;;;133.15;65.17;;;;;;;0.46;79.74;99884.08;3030782;78;21589;-68
2020/12/03 04:54:33;;;;;;;157.22;74.85;;;;;;;0.35;79.94;99888.51;3031840;77;21534;-67
2020/12/03 04:59:13;;;;;;;165.90;80.38;;;;;;;0.27;80.08;99874.94;2983616;78;21600;-67
2020/12/03 05:03:33;;;;;;;149.27;74.53;;;;;;;0.36;80.00;99875.81;3013047;77;21540;-67
2020/12/03 05:07:36;;;;;;;166.80;87.17;;;;;;;0.46;79.91;99876.23;3038387;78;21159;-69
2020/12/03 05:11:45;;;;;;;157.75;86.97;;;;;;;0.55;79.76;99856.19;3017946;77;21129;-67
2020/12/03 05:16:01;;;;;;;154.72;83.27;;;;;;;0.65;79.65;99846.58;3023480;77;21129;-68
2020/12/03 05:20:35;;;;;;;159.10;81.00;;;;;;;0.74;79.21;99854.45;3015050;78;21119;-68
2020/12/03 05:24:39;;;;;;;120.95;58.60;;;;;;;0.78;79.18;99847.70;3040497;78;21095;-66
2020/12/03 05:29:13;;;;;;;129.78;79.82;;;;;;;0.78;79.04;99856.00;3014847;77;21977;-67
2020/12/03 05:33:16;;;;;;;139.12;75.40;;;;;;;0.76;78.98;99853.91;2952466;80;21145;-68
2020/12/03 05:37:22;;;;;;;141.05;75.60;;;;;;;0.76;79.01;99850.85;2987412;78;21541;-67
2020/12/03 05:41:28;;;;;;;136.03;73.40;;;;;;;0.79;79.17;99840.70;3043476;77;21107;-70
2020/12/03 05:45:33;;;;;;;;;;;;;;;0.81;78.89;99838.86;3045520;78;21119;-68
2020/12/03 05:49:40;;;;;;;164.22;82.67;;;;;;;0.83;79.07;99840.94;3042805;77;20155;-69
2020/12/03 05:53:56;;;;;;;138.82;70.35;;;;;;;0.81;79.00;99830.52;3042984;78;21179;-67
2020/12/03 05:58:42;;;;;;;125.07;72.97;;;;;;;0.76;79.29;99831.22;3038383;78;21479;-68
2020/12/03 06:03:36;;;;;;;112.08;54.38;;;;;;;0.71;79.53;99812.27;2914090;81;21596;-66
2020/12/03 06:07:50;;;;;;;151.95;81.55;;;;;;;0.71;79.53;99812.27;2914014;81;21121;-69
2020/12/03 06:12:15;;;;;;;137.20;66.97;;;;;;;0.62;79.89;99814.88;2911854;81;21156;-68
2020/12/03 06:16:56;;;;;;;122.70;63.40;;;;;;;0.65;80.09;99809.48;2927251;81;21614;-67
2020/12/03 06:21:13;;;;;;;135.70;69.53;;;;;;;0.60;80.49;99810.62;2913940;81;21157;-67
2020/12/03 06:25:38;;;;;;;137.05;68.25;;;;;;;0.60;80.49;99810.62;2927088;81;21578;-67
2020/12/03 06:30:09;;;;;;;143.05;76.77;;;;;;;0.68;80.14;99816.31;2913386;81;21622;-67
2020/12/03 06:34:48;;;;;;;131.52;74.00;;;;;;;0.73;80.14;99814.80;2876508;81;21673;-67
2020/12/03 06:38:58;;;;;;;109.52;66.67;;;;;;;0.83;79.73;99804.27;2864034;82;21579;-67
2020/12/03 06:43:36;;;;;;;124.07;54.98;;;;;;;0.96;79.33;99803.20;2876820;82;21160;-69
2020/12/03 06:47:53;;;;;;;141.75;77.70;;;;;;;1.00;78.83;99802.12;2864460;82;21157;-68
2020/12/03 06:52:37;;;;;;;124.85;65.75;;;;;;;1.00;78.83;99802.12;2876691;81;21586;-68
2020/12/03 06:57:18;;;;;;;105.45;53.23;;;;;;;1.04;78.78;99810.20;2864086;82;21730;-69
2020/12/03 07:02:07;;;;;;;139.90;64.22;;;;;;;0.95;78.59;99810.20;2868134;82;21779;-68
2020/12/03 07:06:49;;;;;;;133.32;72.37;;;;;;;0.80;79.18;99819.66;2906611;81;21630;-67
2020/12/03 07:11:31;;;;;;;132.37;74.07;;;;;;;0.81;79.30;99817.91;2847251;82;21146;-67
2020/12/03 07:16:19;;;;;;;153.62;86.02;;;;;;;0.79;79.03;99804.88;2906746;80;21181;-70
2020/12/03 07:20:47;;;;;;;160.63;89.80;;;;;;;0.99;78.77;99821.38;2846881;83;21160;-67
2020/12/03 07:24:51;;;;;;;146.80;87.95;;;;;;;1.10;78.78;99814.30;2906863;81;21109;-67
2020/12/03 07:28:55;;;;;;;149.50;78.87;;;;;;;1.18;78.56;99808.22;2846681;83;21145;-68
2020/12/03 07:33:32;;;;;;;124.30;64.47;;;;;;;1.18;78.32;99805.60;2906966;80;21132;-68
2020/12/03 07:38:04;;;;;;;297.60;167.30;;;;;;;1.12;78.48;99809.82;2847124;83;21129;-67
2020/12/03 07:42:21;;;;;;;272.07;165.07;;;;;;;1.28;78.63;99812.05;2906937;81;21152;-69
2020/12/03 07:46:33;;;;;;;274.70;157.35;;;;;;;1.28;78.63;99812.05;2847419;83;21642;-71
2020/12/03 07:50:44;;;;;;;162.77;91.15;;;;;;;1.33;78.64;99816.20;2906394;81;21590;-70
2020/12/03 07:54:48;;;;;;;157.00;86.15;;;;;;;1.25;78.44;99813.53;2846586;82;21177;-70
2020/12/03 07:58:51;;;;;;;413.27;250.15;;;;;;;1.22;78.64;99811.06;2907178;81;21164;-69
2020/12/03 08:02:59;;;;;;;147.07;69.40;;;;;;;1.19;79.10;99810.36;2847400;83;21164;-67
2020/12/03 08:07:13;;;;;;;149.40;83.97;;;;;;;1.18;79.42;99820.46;2793261;85;21204;-68
2020/12/03 08:11:44;;;;;;;137.60;80.22;;;;;;;1.19;79.70;99812.98;2808806;84;21643;-68
2020/12/03 08:16:16;;;;;;;147.17;77.32;;;;;;;1.31;79.83;99810.20;2792374;85;21185;-69
2020/12/03 08:20:21;;;;;;;158.22;86.10;;;;;;;1.51;79.53;99792.98;2848603;82;21539;-69
2020/12/03 08:24:28;;;;;;;164.70;89.43;;;;;;;1.51;79.53;99792.98;2793099;85;21180;-68
2020/12/03 08:28:33;;;;;;;168.40;99.80;;;;;;;1.67;79.70;99797.43;2808911;84;21594;-71
2020/12/03 08:33:10;;;;;;;156.80;89.40;;;;;;;1.77;79.53;99790.78;2847702;82;21575;-67
2020/12/03 08:37:18;;;;;;;166.65;90.53;;;;;;;1.76;79.19;99780.36;2847869;83;21145;-70
2020/12/03 08:41:27;;;;;;;140.60;67.72;;;;;;;1.90;79.45;99788.80;2847616;82;21619;-69
2020/12/03 08:45:44;;;;;;;148.78;81.70;;;;;;;1.86;79.33;99784.17;2847337;83;21162;-69
2020/12/03 08:49:43;;;;;;;154.60;83.35;;;;;;;1.82;79.65;99776.09;2847606;82;21109;-68
2020/12/03 08:53:49;;;;;;;142.35;78.40;;;;;;;1.73;79.65;99756.45;2847066;82;21152;-69
2020/12/03 08:57:58;;;;;;;133.80;73.92;;;;;;;1.82;79.77;99770.39;2847184;82;21625;-69
2020/12/03 09:02:08;;;;;;;153.12;83.47;;;;;;;1.87;79.79;99771.92;2847040;83;21125;-70
2020/12/03 09:06:13;;;;;;;137.20;74.62;;;;;;;1.88;80.09;99776.23;2847248;83;21180;-69
2020/12/03 09:10:20;;;;;;;155.93;88.35;;;;;;;1.94;79.80;99773.27;2847204;83;21129;-70
2020/12/03 09:14:27;;;;;;;132.07;74.80;;;;;;;1.95;80.00;99777.13;2847110;82;21153;-71
2020/12/03 09:18:32;;;;;;;146.00;87.10;;;;;;;1.91;79.86;99772.13;2847116;83;21153;-69
2020/12/03 09:22:40;;;;;;;142.40;82.15;;;;;;;1.93;80.17;99770.27;2847208;83;21149;-68
2020/12/03 09:31:12;;;;;;;159.72;85.17;;;;;;;1.92;79.97;99748.45;2799692;83;21168;-70
2020/12/03 09:35:18;;;;;;;150.05;77.50;;;;;;;1.91;80.08;99740.65;2799362;85;21125;-70
2020/12/03 09:39:21;;;;;;;127.50;67.97;;;;;;;1.77;80.25;99710.80;2799859;84;21157;-69
2020/12/03 09:43:27;;;;;;;135.97;79.65;;;;;;;1.83;80.50;99729.27;2799565;84;21176;-71
2020/12/03 09:47:32;;;;;;;149.15;74.22;;;;;;;1.85;80.42;99733.95;2799451;85;21172;-69
2020/12/03 09:51:35;;;;;;;136.97;76.60;;;;;;;1.81;80.69;99715.39;2799841;85;21125;-69
2020/12/03 09:55:38;;;;;;;129.72;72.60;;;;;;;1.86;81.09;99712.05;2799278;85;21196;-69
2020/12/03 09:59:41;;;;;;;126.60;73.15;;;;;;;1.89;81.30;99704.03;2799331;84;21184;-68
2020/12/03 10:04:21;;;;;;;110.30;53.17;;;;;;;1.91;81.17;99703.92;2799308;84;21168;-69
2020/12/03 10:09:07;;;;;;;114.30;64.67;;;;;;;1.92;81.57;99703.00;2799233;84;21603;-69
2020/12/03 10:13:41;;;;;;;144.05;73.95;;;;;;;2.00;81.50;99695.08;2773547;85;21630;-69
2020/12/03 10:18:14;;;;;;;128.95;71.92;;;;;;;2.14;81.17;99666.75;2799419;85;21192;-69
2020/12/03 10:22:46;;;;;;;134.30;75.42;;;;;;;2.22;80.90;99641.87;2781586;85;21631;-69
2020/12/03 10:26:54;;;;;;;125.60;70.67;;;;;;;2.24;80.56;99639.52;2799573;85;21547;-70
2020/12/03 10:30:58;;;;;;;127.17;67.50;;;;;;;2.22;80.78;99636.14;2809297;83;21136;-71
2020/12/03 10:35:05;;;;;;;136.88;76.85;;;;;;;2.19;80.64;99623.68;2810828;84;21227;-70
2020/12/03 10:39:12;;;;;;;190.82;109.37;;;;;;;2.17;80.77;99613.74;2810603;84;21687;-70
2020/12/03 10:43:23;;;;;;;210.72;116.25;;;;;;;2.12;80.83;99608.75;2810928;84;21144;-69
2020/12/03 10:47:26;;;;;;;168.13;94.15;;;;;;;2.09;81.03;99611.08;2810735;84;21152;-67
2020/12/03 10:51:30;;;;;;;146.77;87.12;;;;;;;2.07;80.95;99597.20;2810886;84;21180;-68
2020/12/03 10:55:33;;;;;;;149.60;69.55;;;;;;;2.07;81.08;99590.64;2810742;84;21140;-67
2020/12/03 11:05:12;;;;;;;144.93;74.75;;;;;;;1.91;81.07;99583.27;2735391;87;21189;-66
2020/12/03 11:09:19;;;;;;;138.92;78.10;;;;;;;1.84;81.74;99584.08;2807134;84;21191;-67
2020/12/03 11:13:21;;;;;;;;;;;;;;;1.79;81.58;99580.43;2785805;85;21179;-68
2020/12/03 11:17:30;;;;;;;138.45;75.60;;;;;;;1.79;81.53;99581.74;2732594;86;20173;-68
2020/12/03 11:21:38;;;;;;;125.25;61.85;;;;;;;1.88;81.76;99561.16;2807077;84;21160;-70
2020/12/03 11:25:40;;;;;;;;;;;;;;;1.88;81.76;99561.16;2809494;84;21160;-67
2020/12/03 11:29:43;;;;;;;137.47;73.95;;;;;;;1.90;81.30;99548.80;2818087;84;20142;-67
2020/12/03 11:33:51;;;;;;;110.90;52.78;;;;;;;1.85;81.50;99545.98;2828066;83;21731;-67
2020/12/03 11:37:56;;;;;;;133.55;71.00;;;;;;;1.95;81.59;99531.00;2828642;84;21744;-67
2020/12/03 11:47:38;;;;;;;126.67;75.80;;;;;;;1.96;81.65;99539.25;3125932;76;21045;-66
2020/12/03 11:51:34;;;;;;;138.97;70.28;;;;;;;1.97;81.40;99524.75;3074005;77;21128;-64
2020/12/03 11:55:40;;;;;;;137.10;68.25;;;;;;;1.96;81.22;99515.64;3073911;77;22211;-65
2020/12/03 11:59:43;;;;;;;;;;;;;;;1.99;80.93;99504.99;3137779;75;21600;-65
2020/12/03 12:03:48;;;;;;;106.55;59.08;;;;;;;1.98;80.84;99493.64;3134883;75;20428;-65
2020/12/03 12:08:11;;;;;;;122.90;62.15;;;;;;;1.97;80.60;99495.06;3074479;77;21095;-65
2020/12/03 12:12:09;;;;;;;129.75;70.97;;;;;;;2.03;80.38;99488.13;3133621;75;21455;-66
2020/12/03 12:16:12;;;;;;;128.75;66.42;;;;;;;2.11;80.38;99489.82;3073761;77;21124;-64
2020/12/03 12:20:15;;;;;;;114.25;64.70;;;;;;;2.14;79.87;99474.38;3139487;75;22011;-66
2020/12/03 12:24:20;;;;;;;114.23;63.13;;;;;;;2.11;79.56;99460.13;3101023;76;21112;-67
2020/12/03 12:28:24;;;;;;;120.25;69.10;;;;;;;1.98;79.59;99448.22;3145084;75;21120;-66
2020/12/03 12:32:27;;;;;;;143.90;77.47;;;;;;;1.90;79.99;99434.70;3126764;75;21121;-67
2020/12/03 12:36:32;;;;;;;131.50;76.17;;;;;;;1.92;80.43;99422.33;3086481;77;21146;-66
2020/12/03 12:40:38;;;;;;;126.10;75.23;;;;;;;1.90;80.60;99435.55;3072176;77;21120;-65
2020/12/03 12:44:44;;;;;;;125.80;68.75;;;;;;;1.94;80.33;99444.92;3067129;77;21128;-64
2020/12/03 12:48:50;;;;;;;117.67;68.57;;;;;;;2.07;80.41;99452.90;3056905;77;21129;-66
2020/12/03 12:52:55;;;;;;;110.32;64.07;;;;;;;2.22;79.93;99452.92;3057018;77;21129;-66
2020/12/03 12:57:01;;;;;;;104.92;62.17;;;;;;;2.33;79.25;99441.28;3055938;77;21603;-65
2020/12/03 13:01:04;;;;;;;109.97;60.17;;;;;;;2.38;79.04;99430.06;3056050;77;21572;-66
2020/12/03 13:05:07;;;;;;;133.52;68.65;;;;;;;2.38;78.50;99423.50;3055114;77;21154;-66
2020/12/03 13:09:11;;;;;;;124.10;64.55;;;;;;;2.41;78.74;99427.23;3001156;77;21089;-66
2020/12/03 13:13:16;;;;;;;127.07;71.07;;;;;;;2.43;78.52;99408.75;2998562;78;21116;-68
2020/12/03 13:17:19;;;;;;;131.43;75.55;;;;;;;2.43;78.53;99401.73;2991522;78;21587;-66
2020/12/03 13:21:23;;;;;;;137.25;65.40;;;;;;;2.40;78.59;99392.74;2986903;78;21602;-66
2020/12/03 13:25:26;;;;;;;121.00;69.90;;;;;;;2.36;79.18;99395.64;2998800;79;21136;-66
2020/12/03 13:29:29;;;;;;;111.20;61.42;;;;;;;2.40;79.31;99404.55;3004052;78;21106;-66
2020/12/03 13:33:32;;;;;;;124.47;64.03;;;;;;;2.42;79.28;99397.42;3026263;78;21126;-66
2020/12/03 13:37:35;;;;;;;137.12;72.27;;;;;;;2.40;79.40;99403.70;3026542;78;21103;-64
2020/12/03 13:41:37;;;;;;;111.65;62.00;;;;;;;2.37;79.65;99402.12;3027048;78;21074;-66
2020/12/03 13:45:40;;;;;;;133.15;72.62;;;;;;;2.41;79.64;99405.38;3029092;78;21157;-68
2020/12/03 13:49:43;;;;;;;169.28;91.37;;;;;;;2.44;79.58;99405.19;3031891;77;21126;-65
2020/12/03 13:53:46;;;;;;;115.72;68.55;;;;;;;2.45;79.81;99409.50;3032012;77;21133;-62
2020/12/03 13:57:49;;;;;;;127.20;76.62;;;;;;;2.49;79.85;99398.34;3031987;77;21150;-64
2020/12/03 14:01:53;;;;;;;132.82;77.12;;;;;;;2.50;79.95;99392.16;3032345;78;21127;-62
2020/12/03 14:05:56;;;;;;;118.33;71.67;;;;;;;2.55;80.19;99388.30;3031802;78;21536;-65
2020/12/03 14:09:59;;;;;;;103.83;62.00;;;;;;;2.65;80.10;99381.14;3031970;77;21102;-67
2020/12/03 14:14:02;;;;;;;122.22;68.42;;;;;;;2.73;79.74;99383.28;3031899;77;21134;-64
2020/12/03 14:18:06;;;;;;;114.05;72.32;;;;;;;2.84;79.24;99376.89;3032336;78;21110;-64
2020/12/03 14:22:10;;;;;;;120.30;68.50;;;;;;;2.89;78.79;99373.48;3031848;77;21129;-66
2020/12/03 14:26:15;;;;;;;110.78;70.60;;;;;;;2.93;78.59;99374.14;3032038;78;21564;-66
2020/12/03 14:30:19;;;;;;;114.82;68.80;;;;;;;2.95;78.47;99363.91;3032329;77;21138;-67
2020/12/03 14:34:22;;;;;;;100.00;57.50;;;;;;;3.00;78.39;99368.39;3032118;78;21150;-68
2020/12/03 14:38:25;;;;;;;110.30;65.83;;;;;;;3.03;77.98;99357.31;3031724;78;21106;-68
2020/12/03 14:42:28;;;;;;;111.15;65.17;;;;;;;3.04;78.08;99360.30;3031833;78;21129;-68
2020/12/03 14:46:31;;;;;;;105.43;61.00;;;;;;;3.04;78.37;99355.88;2992275;77;21547;-67
2020/12/03 14:50:36;;;;;;;126.38;84.42;;;;;;;3.07;78.10;99352.22;3030063;77;21125;-66
2020/12/03 14:54:39;;;;;;;124.90;65.75;;;;;;;3.03;78.01;99338.91;2974734;78;21079;-67
2020/12/03 14:58:43;;;;;;;133.95;69.58;;;;;;;3.03;78.34;99340.23;2962054;79;21144;-67
2020/12/03 15:02:48;;;;;;;73.47;44.35;;;;;;;3.09;78.39;99343.76;2993801;77;21131;-67
2020/12/03 15:06:52;;;;;;;61.77;38.35;;;;;;;3.11;78.43;99344.50;2996315;77;21538;-66
2020/12/03 15:10:59;;;;;;;63.05;35.15;;;;;;;3.20;78.16;99342.59;3015118;78;21145;-67
2020/12/03 15:15:02;;;;;;;35.55;23.25;;;;;;;3.23;77.81;99346.78;3015950;78;21121;-66
2020/12/03 15:19:05;;;;;;;36.90;24.20;;;;;;;3.30;77.10;99332.30;2959223;80;21141;-65
2020/12/03 15:23:07;;;;;;;29.55;18.90;;;;;;;3.38;76.10;99324.73;3015119;78;21566;-68
2020/12/03 15:27:12;;;;;;;33.63;19.02;;;;;;;3.46;75.64;99325.53;2959329;80;21122;-67
2020/12/03 15:31:16;;;;;;;34.15;20.12;;;;;;;3.48;75.29;99321.50;3015461;78;21100;-65
2020/12/03 15:35:19;;;;;;;31.57;21.85;;;;;;;3.51;74.99;99320.80;2961866;80;21174;-66
2020/12/03 15:39:25;;;;;;;38.08;22.95;;;;;;;3.52;74.55;99301.44;3015414;78;21591;-66
2020/12/03 15:43:28;;;;;;;;;;;;;;;3.53;74.28;99291.77;2944288;80;21163;-66
2020/12/03 15:47:33;;;;;;;34.58;22.80;;;;;;;3.51;74.13;99290.55;3015644;77;20191;-66
2020/12/03 15:51:36;;;;;;;39.95;24.12;;;;;;;3.49;74.23;99277.98;2984941;79;21128;-68
2020/12/03 15:55:39;;;;;;;32.70;23.10;;;;;;;3.50;74.26;99268.33;3005424;79;21125;-66
2020/12/03 15:59:42;;;;;;;45.48;28.67;;;;;;;3.48;74.34;99267.10;3004929;79;21100;-65
2020/12/03 16:03:45;;;;;;;35.65;23.98;;;;;;;3.47;74.42;99275.12;3005634;79;21101;-66
2020/12/03 16:07:48;;;;;;;35.55;22.35;;;;;;;3.45;74.62;99266.49;3005493;79;21104;-67
2020/12/03 16:11:51;;;;;;;35.13;18.05;;;;;;;3.45;74.60;99266.00;3005824;79;21120;-69
2020/12/03 16:15:55;;;;;;;35.35;21.75;;;;;;;3.49;74.54;99262.70;3005568;78;21144;-64
2020/12/03 16:19:58;;;;;;;29.82;17.62;;;;;;;3.51;74.50;99252.91;3005679;79;21124;-67
2020/12/03 16:24:01;;;;;;;24.07;17.48;;;;;;;3.53;74.42;99259.73;3005443;79;21124;-66
2020/12/03 16:28:04;;;;;;;26.77;17.98;;;;;;;3.50;74.41;99246.80;3005599;78;21100;-67
2020/12/03 16:32:07;;;;;;;24.67;18.73;;;;;;;3.51;74.36;99239.77;3005777;78;21590;-67
2020/12/03 16:36:11;;;;;;;30.92;21.48;;;;;;;3.50;74.42;99244.17;3005833;79;21148;-66
2020/12/03 16:40:14;;;;;;;32.53;20.17;;;;;;;3.54;74.45;99257.50;3005153;79;21128;-65
2020/12/03 16:44:17;;;;;;;28.57;21.15;;;;;;;3.58;74.22;99275.20;3005820;78;21124;-66
2020/12/03 16:48:20;;;;;;;32.13;24.72;;;;;;;3.61;74.08;99280.73;2996670;79;21133;-65
2020/12/03 16:52:23;;;;;;;24.77;19.52;;;;;;;3.63;73.98;99280.97;2999169;79;21101;-65
2020/12/03 17:00:44;;;;;;;36.00;23.87;;;;;;;3.76;73.61;99294.14;3066341;77;23505;-64
2020/12/03 17:04:49;;;;;;;34.80;22.73;;;;;;;3.73;73.72;99296.95;3021258;78;21148;-64
2020/12/03 17:08:52;;;;;;;37.85;28.75;;;;;;;3.80;73.57;99295.61;2909869;81;21154;-67
2020/12/03 17:12:55;;;;;;;30.57;22.82;;;;;;;3.83;73.42;99285.33;2916254;81;21166;-64
2020/12/03 17:16:58;;;;;;;38.98;24.72;;;;;;;3.83;73.48;99275.66;2961646;80;21181;-64
2020/12/03 17:21:04;;;;;;;27.15;20.05;;;;;;;3.82;73.07;99268.72;2961431;80;21145;-64
2020/12/03 17:25:07;;;;;;;31.27;22.27;;;;;;;3.78;73.34;99262.45;2961726;80;22191;-66
2020/12/03 17:29:10;;;;;;;35.15;21.07;;;;;;;3.81;73.28;99274.07;2961383;80;21610;-65
2020/12/03 17:33:16;;;;;;;40.48;23.75;;;;;;;3.79;73.10;99270.25;2927475;80;21777;-66
2020/12/03 17:37:19;;;;;;;41.33;24.95;;;;;;;3.78;73.11;99264.63;2887092;82;21130;-63
2020/12/03 17:41:22;;;;;;;51.10;32.53;;;;;;;3.81;72.99;99260.92;2900999;82;21165;-65
2020/12/03 17:45:26;;;;;;;57.73;33.18;;;;;;;3.80;73.19;99257.46;2900729;82;21173;-66
2020/12/03 17:49:30;;;;;;;59.67;30.27;;;;;;;3.88;72.97;99252.13;2900556;82;21595;-64
2020/12/03 17:53:32;;;;;;;34.27;25.12;;;;;;;4.03;73.28;99250.19;2900566;82;21153;-66
2020/12/03 17:57:35;;;;;;;77.25;46.73;;;;;;;4.16;73.00;99243.59;2900011;81;21197;-65
2020/12/03 18:01:39;;;;;;;106.75;53.50;;;;;;;4.12;72.31;99242.97;2906034;81;21165;-65
2020/12/03 18:05:42;;;;;;;135.20;61.45;;;;;;;4.08;72.00;99237.07;2905922;81;21121;-67
2020/12/03 18:09:46;;;;;;;56.75;32.30;;;;;;;3.90;72.06;99226.08;2905534;81;21157;-66
2020/12/03 18:13:50;;;;;;;50.48;32.25;;;;;;;3.79;72.37;99224.67;2904948;81;21203;-66
2020/12/03 18:17:55;;;;;;;46.98;29.25;;;;;;;3.72;72.69;99225.58;2903244;81;21118;-65
2020/12/03 18:21:59;;;;;;;49.50;32.40;;;;;;;3.69;72.90;99227.11;2905226;82;21149;-67
2020/12/03 18:26:02;;;;;;;60.83;38.80;;;;;;;3.66;73.09;99220.75;2905263;81;21145;-68
2020/12/03 18:30:07;;;;;;;48.87;29.57;;;;;;;3.65;73.47;99215.98;2904830;82;21647;-64
2020/12/03 18:34:12;;;;;;;41.98;26.42;;;;;;;3.66;73.31;99212.41;2904804;82;21218;-66
2020/12/03 18:38:15;;;;;;;41.13;26.27;;;;;;;3.63;73.34;99219.66;2905406;81;21148;-67
2020/12/03 18:42:24;;;;;;;47.35;28.67;;;;;;;3.65;73.32;99205.47;2905561;81;21154;-63
2020/12/03 18:46:23;;;;;;;56.88;34.05;;;;;;;3.70;73.39;99211.70;2900748;81;21109;-66
2020/12/03 18:50:26;;;;;;;58.10;34.88;;;;;;;3.69;73.17;99190.29;2902288;81;21121;-66
2020/12/03 18:54:28;;;;;;;53.90;32.35;;;;;;;3.69;73.15;99185.03;2903318;81;21161;-67
2020/12/03 18:58:31;;;;;;;45.88;27.87;;;;;;;3.70;73.41;99186.70;2893161;81;21153;-66
2020/12/03 19:02:35;;;;;;;58.87;36.00;;;;;;;3.67;73.44;99193.05;2893778;81;21157;-66
2020/12/03 19:06:40;;;;;;;48.00;30.70;;;;;;;3.69;73.51;99188.97;2899144;81;21148;-69
2020/12/03 19:10:44;;;;;;;38.08;23.22;;;;;;;3.70;73.40;99189.34;2890082;81;21204;-69
2020/12/03 19:14:47;;;;;;;41.92;28.15;;;;;;;3.70;73.25;99178.36;2896096;82;21193;-67
2020/12/03 19:18:50;;;;;;;38.85;28.05;;;;;;;3.73;73.35;99168.07;2895059;81;21127;-68
2020/12/03 19:22:55;;;;;;;42.78;30.10;;;;;;;3.73;73.48;99161.49;2892828;81;21150;-66
2020/12/03 19:27:00;;;;;;;43.17;29.30;;;;;;;3.73;73.43;99156.23;2883298;81;21131;-67
2020/12/03 19:31:03;;;;;;;57.67;35.38;;;;;;;3.76;73.49;99153.88;2889366;81;21173;-67